sensor_id;sensor_type;location;lat;lon;timestamp;P1;durP1;ratioP1;P2;durP2;ratioP2
37411;SDS011;23278;52.110;6.050;2023-12-22T00:00:03;15.15;;;1.98;;
37411;SDS011;23278;52.110;6.050;2023-12-22T00:02:30;18.08;;;3.30;;
37411;SDS011;23278;52.110;6.050;2023-12-22T00:04:56;16.83;;;2.45;;
37411;SDS011;23278;52.110;6.050;2023-12-22T00:07:22;16.95;;;4.10;;
37411;SDS011;23278;52.110;6.050;2023-12-22T00:09:48;10.90;;;2.20;;
37411;SDS011;23278;52.110;6.050;2023-12-22T00:12:14;17.00;;;1.52;;
37411;SDS011;23278;52.110;6.050;2023-12-22T00:14:40;13.27;;;1.80;;
37411;SDS011;23278;52.110;6.050;2023-12-22T00:17:06;11.93;;;2.15;;
37411;SDS011;23278;52.110;6.050;2023-12-22T00:19:32;16.08;;;2.42;;
37411;SDS011;23278;52.110;6.050;2023-12-22T00:21:58;12.38;;;2.50;;
37411;SDS011;23278;52.110;6.050;2023-12-22T00:24:24;12.23;;;1.33;;
37411;SDS011;23278;52.110;6.050;2023-12-22T00:26:50;17.45;;;3.28;;
37411;SDS011;23278;52.110;6.050;2023-12-22T00:29:16;13.02;;;1.95;;
37411;SDS011;23278;52.110;6.050;2023-12-22T00:31:42;12.20;;;2.47;;
37411;SDS011;23278;52.110;6.050;2023-12-22T00:34:08;7.88;;;1.60;;
37411;SDS011;23278;52.110;6.050;2023-12-22T00:36:34;12.50;;;2.40;;
37411;SDS011;23278;52.110;6.050;2023-12-22T00:39:00;11.35;;;2.33;;
37411;SDS011;23278;52.110;6.050;2023-12-22T00:41:25;16.00;;;3.08;;
37411;SDS011;23278;52.110;6.050;2023-12-22T00:43:51;11.77;;;2.75;;
37411;SDS011;23278;52.110;6.050;2023-12-22T00:46:17;16.00;;;3.53;;
37411;SDS011;23278;52.110;6.050;2023-12-22T00:48:44;9.68;;;2.38;;
37411;SDS011;23278;52.110;6.050;2023-12-22T00:51:11;14.40;;;2.80;;
37411;SDS011;23278;52.110;6.050;2023-12-22T00:53:37;11.70;;;1.58;;
37411;SDS011;23278;52.110;6.050;2023-12-22T00:56:03;9.50;;;1.08;;
37411;SDS011;23278;52.110;6.050;2023-12-22T00:58:29;8.25;;;2.13;;
37411;SDS011;23278;52.110;6.050;2023-12-22T01:00:55;7.93;;;1.05;;
37411;SDS011;23278;52.110;6.050;2023-12-22T01:03:21;5.00;;;0.85;;
37411;SDS011;23278;52.110;6.050;2023-12-22T01:05:47;9.82;;;1.98;;
37411;SDS011;23278;52.110;6.050;2023-12-22T01:08:13;8.73;;;2.95;;
37411;SDS011;23278;52.110;6.050;2023-12-22T01:10:39;6.60;;;0.90;;
37411;SDS011;23278;52.110;6.050;2023-12-22T01:13:05;11.27;;;1.00;;
37411;SDS011;23278;52.110;6.050;2023-12-22T01:15:31;6.60;;;1.02;;
37411;SDS011;23278;52.110;6.050;2023-12-22T01:17:57;7.13;;;0.98;;
37411;SDS011;23278;52.110;6.050;2023-12-22T01:20:23;6.68;;;1.23;;
37411;SDS011;23278;52.110;6.050;2023-12-22T01:22:49;10.02;;;2.60;;
37411;SDS011;23278;52.110;6.050;2023-12-22T01:25:15;8.65;;;1.35;;
37411;SDS011;23278;52.110;6.050;2023-12-22T01:27:41;13.48;;;1.10;;
37411;SDS011;23278;52.110;6.050;2023-12-22T01:30:07;10.50;;;1.52;;
37411;SDS011;23278;52.110;6.050;2023-12-22T01:32:33;14.00;;;2.42;;
37411;SDS011;23278;52.110;6.050;2023-12-22T01:35:02;8.63;;;1.27;;
37411;SDS011;23278;52.110;6.050;2023-12-22T01:37:34;5.78;;;1.30;;
37411;SDS011;23278;52.110;6.050;2023-12-22T01:40:02;9.20;;;1.02;;
37411;SDS011;23278;52.110;6.050;2023-12-22T01:42:28;11.02;;;1.13;;
37411;SDS011;23278;52.110;6.050;2023-12-22T01:44:54;9.43;;;1.40;;
37411;SDS011;23278;52.110;6.050;2023-12-22T01:47:20;5.22;;;0.80;;
37411;SDS011;23278;52.110;6.050;2023-12-22T01:49:47;7.35;;;0.75;;
37411;SDS011;23278;52.110;6.050;2023-12-22T01:52:13;6.68;;;1.73;;
37411;SDS011;23278;52.110;6.050;2023-12-22T01:54:41;4.38;;;1.05;;
37411;SDS011;23278;52.110;6.050;2023-12-22T01:57:07;7.07;;;1.25;;
37411;SDS011;23278;52.110;6.050;2023-12-22T01:59:34;5.95;;;0.98;;
37411;SDS011;23278;52.110;6.050;2023-12-22T02:02:04;4.97;;;1.00;;
37411;SDS011;23278;52.110;6.050;2023-12-22T02:04:30;6.90;;;1.00;;
37411;SDS011;23278;52.110;6.050;2023-12-22T02:06:57;7.05;;;1.20;;
37411;SDS011;23278;52.110;6.050;2023-12-22T02:09:26;4.32;;;1.10;;
37411;SDS011;23278;52.110;6.050;2023-12-22T02:11:52;8.45;;;1.40;;
37411;SDS011;23278;52.110;6.050;2023-12-22T02:14:17;8.85;;;1.63;;
37411;SDS011;23278;52.110;6.050;2023-12-22T02:19:47;10.30;;;1.23;;
37411;SDS011;23278;52.110;6.050;2023-12-22T02:22:13;6.15;;;0.95;;
37411;SDS011;23278;52.110;6.050;2023-12-22T02:24:40;9.73;;;1.30;;
37411;SDS011;23278;52.110;6.050;2023-12-22T02:30:06;5.50;;;0.80;;
37411;SDS011;23278;52.110;6.050;2023-12-22T02:32:35;6.45;;;0.82;;
37411;SDS011;23278;52.110;6.050;2023-12-22T02:35:14;6.55;;;0.90;;
37411;SDS011;23278;52.110;6.050;2023-12-22T02:37:42;6.45;;;0.98;;
37411;SDS011;23278;52.110;6.050;2023-12-22T02:40:12;9.18;;;1.30;;
37411;SDS011;23278;52.110;6.050;2023-12-22T02:42:39;7.40;;;0.80;;
37411;SDS011;23278;52.110;6.050;2023-12-22T02:45:05;5.18;;;1.33;;
37411;SDS011;23278;52.110;6.050;2023-12-22T02:47:31;9.77;;;1.42;;
37411;SDS011;23278;52.110;6.050;2023-12-22T02:49:58;9.65;;;1.83;;
37411;SDS011;23278;52.110;6.050;2023-12-22T02:52:24;6.30;;;0.80;;
37411;SDS011;23278;52.110;6.050;2023-12-22T02:54:50;10.15;;;1.58;;
37411;SDS011;23278;52.110;6.050;2023-12-22T02:57:16;11.90;;;1.58;;
37411;SDS011;23278;52.110;6.050;2023-12-22T02:59:42;14.70;;;2.75;;
37411;SDS011;23278;52.110;6.050;2023-12-22T03:02:08;19.17;;;2.20;;
37411;SDS011;23278;52.110;6.050;2023-12-22T03:04:34;15.63;;;1.23;;
37411;SDS011;23278;52.110;6.050;2023-12-22T03:07:00;4.43;;;1.20;;
37411;SDS011;23278;52.110;6.050;2023-12-22T03:09:26;6.57;;;1.35;;
37411;SDS011;23278;52.110;6.050;2023-12-22T03:11:52;5.10;;;0.73;;
37411;SDS011;23278;52.110;6.050;2023-12-22T03:14:19;4.47;;;1.05;;
37411;SDS011;23278;52.110;6.050;2023-12-22T03:16:45;5.20;;;0.80;;
37411;SDS011;23278;52.110;6.050;2023-12-22T03:19:11;6.88;;;1.63;;
37411;SDS011;23278;52.110;6.050;2023-12-22T03:21:37;3.78;;;0.70;;
37411;SDS011;23278;52.110;6.050;2023-12-22T03:24:03;8.73;;;2.10;;
37411;SDS011;23278;52.110;6.050;2023-12-22T03:26:29;11.27;;;1.70;;
37411;SDS011;23278;52.110;6.050;2023-12-22T03:28:55;7.15;;;1.27;;
37411;SDS011;23278;52.110;6.050;2023-12-22T03:31:21;4.88;;;0.80;;
37411;SDS011;23278;52.110;6.050;2023-12-22T03:33:47;5.30;;;1.00;;
37411;SDS011;23278;52.110;6.050;2023-12-22T03:36:13;9.27;;;1.10;;
37411;SDS011;23278;52.110;6.050;2023-12-22T03:38:39;4.78;;;0.98;;
37411;SDS011;23278;52.110;6.050;2023-12-22T03:41:05;6.50;;;1.73;;
37411;SDS011;23278;52.110;6.050;2023-12-22T03:43:31;9.18;;;0.90;;
37411;SDS011;23278;52.110;6.050;2023-12-22T03:45:57;5.72;;;1.05;;
37411;SDS011;23278;52.110;6.050;2023-12-22T03:48:23;4.43;;;0.75;;
37411;SDS011;23278;52.110;6.050;2023-12-22T03:50:49;7.97;;;0.70;;
37411;SDS011;23278;52.110;6.050;2023-12-22T03:53:15;4.68;;;1.45;;
37411;SDS011;23278;52.110;6.050;2023-12-22T03:55:40;5.97;;;0.90;;
37411;SDS011;23278;52.110;6.050;2023-12-22T03:58:06;6.20;;;0.52;;
37411;SDS011;23278;52.110;6.050;2023-12-22T04:00:33;6.03;;;0.65;;
37411;SDS011;23278;52.110;6.050;2023-12-22T04:02:59;3.10;;;0.93;;
37411;SDS011;23278;52.110;6.050;2023-12-22T04:05:26;7.20;;;1.00;;
37411;SDS011;23278;52.110;6.050;2023-12-22T04:07:52;6.85;;;1.40;;
37411;SDS011;23278;52.110;6.050;2023-12-22T04:10:17;5.30;;;0.90;;
37411;SDS011;23278;52.110;6.050;2023-12-22T04:12:44;7.55;;;1.10;;
37411;SDS011;23278;52.110;6.050;2023-12-22T04:15:10;6.88;;;1.35;;
37411;SDS011;23278;52.110;6.050;2023-12-22T04:17:36;6.25;;;1.00;;
37411;SDS011;23278;52.110;6.050;2023-12-22T04:20:02;8.80;;;1.70;;
37411;SDS011;23278;52.110;6.050;2023-12-22T04:22:28;8.57;;;0.95;;
37411;SDS011;23278;52.110;6.050;2023-12-22T04:24:54;7.07;;;0.90;;
37411;SDS011;23278;52.110;6.050;2023-12-22T04:27:20;7.07;;;1.77;;
37411;SDS011;23278;52.110;6.050;2023-12-22T04:29:46;10.80;;;1.15;;
37411;SDS011;23278;52.110;6.050;2023-12-22T04:32:11;9.38;;;1.08;;
37411;SDS011;23278;52.110;6.050;2023-12-22T04:34:37;6.90;;;0.80;;
37411;SDS011;23278;52.110;6.050;2023-12-22T04:37:03;7.95;;;2.65;;
37411;SDS011;23278;52.110;6.050;2023-12-22T04:39:29;10.95;;;0.90;;
37411;SDS011;23278;52.110;6.050;2023-12-22T04:41:55;7.72;;;1.13;;
37411;SDS011;23278;52.110;6.050;2023-12-22T04:44:21;9.43;;;1.10;;
37411;SDS011;23278;52.110;6.050;2023-12-22T04:46:46;14.73;;;2.88;;
37411;SDS011;23278;52.110;6.050;2023-12-22T04:49:12;6.20;;;0.85;;
37411;SDS011;23278;52.110;6.050;2023-12-22T04:51:38;11.65;;;1.38;;
37411;SDS011;23278;52.110;6.050;2023-12-22T04:54:04;14.75;;;1.20;;
37411;SDS011;23278;52.110;6.050;2023-12-22T04:56:30;17.30;;;3.67;;
37411;SDS011;23278;52.110;6.050;2023-12-22T04:58:56;12.88;;;1.95;;
37411;SDS011;23278;52.110;6.050;2023-12-22T05:01:22;20.90;;;2.10;;
37411;SDS011;23278;52.110;6.050;2023-12-22T05:03:48;11.05;;;1.33;;
37411;SDS011;23278;52.110;6.050;2023-12-22T05:06:14;7.07;;;1.73;;
37411;SDS011;23278;52.110;6.050;2023-12-22T05:08:40;15.00;;;1.52;;
37411;SDS011;23278;52.110;6.050;2023-12-22T05:11:06;14.38;;;1.80;;
37411;SDS011;23278;52.110;6.050;2023-12-22T05:13:32;13.57;;;2.03;;
37411;SDS011;23278;52.110;6.050;2023-12-22T05:15:58;12.88;;;1.85;;
37411;SDS011;23278;52.110;6.050;2023-12-22T05:18:24;11.20;;;1.92;;
37411;SDS011;23278;52.110;6.050;2023-12-22T05:20:51;15.85;;;3.35;;
37411;SDS011;23278;52.110;6.050;2023-12-22T05:23:19;13.20;;;1.73;;
37411;SDS011;23278;52.110;6.050;2023-12-22T05:25:45;12.93;;;2.15;;
37411;SDS011;23278;52.110;6.050;2023-12-22T05:28:10;15.20;;;2.38;;
37411;SDS011;23278;52.110;6.050;2023-12-22T05:30:36;12.00;;;1.80;;
37411;SDS011;23278;52.110;6.050;2023-12-22T05:33:02;15.80;;;2.17;;
37411;SDS011;23278;52.110;6.050;2023-12-22T05:35:29;16.40;;;2.42;;
37411;SDS011;23278;52.110;6.050;2023-12-22T05:37:54;18.48;;;2.67;;
37411;SDS011;23278;52.110;6.050;2023-12-22T05:40:21;11.10;;;1.80;;
37411;SDS011;23278;52.110;6.050;2023-12-22T05:42:47;28.70;;;2.63;;
37411;SDS011;23278;52.110;6.050;2023-12-22T05:45:13;16.40;;;2.00;;
37411;SDS011;23278;52.110;6.050;2023-12-22T05:47:40;12.65;;;2.42;;
37411;SDS011;23278;52.110;6.050;2023-12-22T05:50:06;8.63;;;1.60;;
37411;SDS011;23278;52.110;6.050;2023-12-22T05:52:33;17.73;;;2.45;;
37411;SDS011;23278;52.110;6.050;2023-12-22T05:54:59;17.55;;;3.55;;
37411;SDS011;23278;52.110;6.050;2023-12-22T05:57:25;20.25;;;2.10;;
37411;SDS011;23278;52.110;6.050;2023-12-22T05:59:51;20.75;;;2.58;;
37411;SDS011;23278;52.110;6.050;2023-12-22T06:02:17;15.05;;;2.67;;
37411;SDS011;23278;52.110;6.050;2023-12-22T06:04:43;20.55;;;2.47;;
37411;SDS011;23278;52.110;6.050;2023-12-22T06:07:10;21.35;;;3.13;;
37411;SDS011;23278;52.110;6.050;2023-12-22T06:09:36;9.18;;;1.88;;
37411;SDS011;23278;52.110;6.050;2023-12-22T06:12:02;21.45;;;2.90;;
37411;SDS011;23278;52.110;6.050;2023-12-22T06:14:28;13.10;;;2.22;;
37411;SDS011;23278;52.110;6.050;2023-12-22T06:16:54;15.13;;;2.60;;
37411;SDS011;23278;52.110;6.050;2023-12-22T06:19:23;24.80;;;4.03;;
37411;SDS011;23278;52.110;6.050;2023-12-22T06:21:50;19.65;;;3.40;;
37411;SDS011;23278;52.110;6.050;2023-12-22T06:24:16;17.75;;;2.95;;
37411;SDS011;23278;52.110;6.050;2023-12-22T06:26:42;33.85;;;4.60;;
37411;SDS011;23278;52.110;6.050;2023-12-22T06:29:08;27.80;;;3.83;;
37411;SDS011;23278;52.110;6.050;2023-12-22T06:31:34;23.88;;;4.70;;
37411;SDS011;23278;52.110;6.050;2023-12-22T06:34:00;28.42;;;4.30;;
37411;SDS011;23278;52.110;6.050;2023-12-22T06:36:27;25.85;;;3.40;;
37411;SDS011;23278;52.110;6.050;2023-12-22T06:38:54;22.50;;;2.70;;
37411;SDS011;23278;52.110;6.050;2023-12-22T06:43:56;18.48;;;3.78;;
37411;SDS011;23278;52.110;6.050;2023-12-22T06:46:25;13.00;;;1.88;;
37411;SDS011;23278;52.110;6.050;2023-12-22T06:48:52;15.20;;;3.17;;
37411;SDS011;23278;52.110;6.050;2023-12-22T06:51:19;15.13;;;2.22;;
37411;SDS011;23278;52.110;6.050;2023-12-22T06:53:48;11.57;;;3.17;;
37411;SDS011;23278;52.110;6.050;2023-12-22T06:56:18;12.50;;;2.85;;
37411;SDS011;23278;52.110;6.050;2023-12-22T06:58:49;20.48;;;4.10;;
37411;SDS011;23278;52.110;6.050;2023-12-22T07:01:20;11.52;;;1.52;;
37411;SDS011;23278;52.110;6.050;2023-12-22T07:03:47;10.15;;;1.67;;
37411;SDS011;23278;52.110;6.050;2023-12-22T07:06:14;11.05;;;2.30;;
37411;SDS011;23278;52.110;6.050;2023-12-22T07:08:40;19.23;;;3.35;;
37411;SDS011;23278;52.110;6.050;2023-12-22T07:11:08;21.30;;;2.30;;
37411;SDS011;23278;52.110;6.050;2023-12-22T07:13:35;25.50;;;4.70;;
37411;SDS011;23278;52.110;6.050;2023-12-22T07:16:01;12.20;;;2.40;;
37411;SDS011;23278;52.110;6.050;2023-12-22T07:18:30;11.52;;;2.58;;
37411;SDS011;23278;52.110;6.050;2023-12-22T07:20:59;16.85;;;3.42;;
37411;SDS011;23278;52.110;6.050;2023-12-22T07:23:25;18.10;;;1.98;;
37411;SDS011;23278;52.110;6.050;2023-12-22T07:25:51;21.35;;;2.92;;
37411;SDS011;23278;52.110;6.050;2023-12-22T07:28:17;10.82;;;1.83;;
37411;SDS011;23278;52.110;6.050;2023-12-22T07:30:43;13.75;;;2.03;;
37411;SDS011;23278;52.110;6.050;2023-12-22T07:33:09;16.27;;;2.67;;
37411;SDS011;23278;52.110;6.050;2023-12-22T07:35:35;25.52;;;4.40;;
37411;SDS011;23278;52.110;6.050;2023-12-22T07:38:01;10.10;;;1.45;;
37411;SDS011;23278;52.110;6.050;2023-12-22T07:40:29;16.42;;;2.65;;
37411;SDS011;23278;52.110;6.050;2023-12-22T07:42:56;9.77;;;2.10;;
37411;SDS011;23278;52.110;6.050;2023-12-22T07:45:22;18.30;;;2.10;;
37411;SDS011;23278;52.110;6.050;2023-12-22T07:47:48;21.60;;;3.80;;
37411;SDS011;23278;52.110;6.050;2023-12-22T07:50:14;14.63;;;5.00;;
37411;SDS011;23278;52.110;6.050;2023-12-22T07:52:40;20.42;;;4.82;;
37411;SDS011;23278;52.110;6.050;2023-12-22T07:55:06;17.63;;;2.92;;
37411;SDS011;23278;52.110;6.050;2023-12-22T07:57:37;22.40;;;3.67;;
37411;SDS011;23278;52.110;6.050;2023-12-22T08:00:06;12.75;;;2.15;;
37411;SDS011;23278;52.110;6.050;2023-12-22T08:02:37;23.80;;;2.83;;
37411;SDS011;23278;52.110;6.050;2023-12-22T08:05:03;9.70;;;2.05;;
37411;SDS011;23278;52.110;6.050;2023-12-22T08:07:29;23.80;;;4.32;;
37411;SDS011;23278;52.110;6.050;2023-12-22T08:09:56;18.17;;;3.67;;
37411;SDS011;23278;52.110;6.050;2023-12-22T08:12:22;19.23;;;5.38;;
37411;SDS011;23278;52.110;6.050;2023-12-22T08:14:48;19.30;;;3.95;;
37411;SDS011;23278;52.110;6.050;2023-12-22T08:17:14;18.83;;;3.60;;
37411;SDS011;23278;52.110;6.050;2023-12-22T08:19:40;16.98;;;3.10;;
37411;SDS011;23278;52.110;6.050;2023-12-22T08:22:09;15.55;;;3.25;;
37411;SDS011;23278;52.110;6.050;2023-12-22T08:24:36;17.58;;;2.65;;
37411;SDS011;23278;52.110;6.050;2023-12-22T08:27:02;15.40;;;3.33;;
37411;SDS011;23278;52.110;6.050;2023-12-22T08:29:28;22.55;;;3.47;;
37411;SDS011;23278;52.110;6.050;2023-12-22T08:31:54;19.23;;;3.00;;
37411;SDS011;23278;52.110;6.050;2023-12-22T08:34:20;18.85;;;3.75;;
37411;SDS011;23278;52.110;6.050;2023-12-22T08:36:46;27.17;;;4.18;;
37411;SDS011;23278;52.110;6.050;2023-12-22T08:39:11;19.08;;;2.67;;
37411;SDS011;23278;52.110;6.050;2023-12-22T08:41:38;13.55;;;2.55;;
37411;SDS011;23278;52.110;6.050;2023-12-22T08:44:04;14.77;;;2.40;;
37411;SDS011;23278;52.110;6.050;2023-12-22T08:46:31;26.10;;;3.97;;
37411;SDS011;23278;52.110;6.050;2023-12-22T08:48:57;9.43;;;1.75;;
37411;SDS011;23278;52.110;6.050;2023-12-22T08:51:25;23.10;;;2.53;;
37411;SDS011;23278;52.110;6.050;2023-12-22T08:53:51;23.08;;;3.60;;
37411;SDS011;23278;52.110;6.050;2023-12-22T08:56:20;13.68;;;2.10;;
37411;SDS011;23278;52.110;6.050;2023-12-22T08:58:51;15.68;;;1.95;;
37411;SDS011;23278;52.110;6.050;2023-12-22T09:01:18;13.48;;;2.45;;
37411;SDS011;23278;52.110;6.050;2023-12-22T09:03:44;10.35;;;1.85;;
37411;SDS011;23278;52.110;6.050;2023-12-22T09:06:18;12.88;;;2.20;;
37411;SDS011;23278;52.110;6.050;2023-12-22T09:08:48;20.95;;;2.47;;
37411;SDS011;23278;52.110;6.050;2023-12-22T09:11:18;20.33;;;3.40;;
37411;SDS011;23278;52.110;6.050;2023-12-22T09:13:45;16.90;;;3.75;;
37411;SDS011;23278;52.110;6.050;2023-12-22T09:16:11;17.02;;;2.58;;
37411;SDS011;23278;52.110;6.050;2023-12-22T09:18:40;13.20;;;3.08;;
37411;SDS011;23278;52.110;6.050;2023-12-22T09:21:07;16.95;;;3.85;;
37411;SDS011;23278;52.110;6.050;2023-12-22T09:23:33;14.32;;;3.75;;
37411;SDS011;23278;52.110;6.050;2023-12-22T09:25:59;24.60;;;3.58;;
37411;SDS011;23278;52.110;6.050;2023-12-22T09:28:25;21.73;;;2.75;;
37411;SDS011;23278;52.110;6.050;2023-12-22T09:30:51;17.73;;;2.97;;
37411;SDS011;23278;52.110;6.050;2023-12-22T09:33:16;29.80;;;4.35;;
37411;SDS011;23278;52.110;6.050;2023-12-22T09:35:42;23.40;;;3.25;;
37411;SDS011;23278;52.110;6.050;2023-12-22T09:38:09;15.52;;;2.63;;
37411;SDS011;23278;52.110;6.050;2023-12-22T09:40:37;34.35;;;4.22;;
37411;SDS011;23278;52.110;6.050;2023-12-22T09:43:04;16.58;;;2.90;;
37411;SDS011;23278;52.110;6.050;2023-12-22T09:45:32;22.30;;;2.80;;
37411;SDS011;23278;52.110;6.050;2023-12-22T09:47:59;18.02;;;2.42;;
37411;SDS011;23278;52.110;6.050;2023-12-22T09:50:26;17.55;;;2.67;;
37411;SDS011;23278;52.110;6.050;2023-12-22T09:52:52;17.75;;;3.55;;
37411;SDS011;23278;52.110;6.050;2023-12-22T09:55:21;12.82;;;2.90;;
37411;SDS011;23278;52.110;6.050;2023-12-22T09:57:48;9.70;;;2.20;;
37411;SDS011;23278;52.110;6.050;2023-12-22T10:00:17;14.48;;;3.97;;
37411;SDS011;23278;52.110;6.050;2023-12-22T10:02:44;14.82;;;3.08;;
37411;SDS011;23278;52.110;6.050;2023-12-22T10:05:13;14.25;;;2.70;;
37411;SDS011;23278;52.110;6.050;2023-12-22T10:07:40;17.58;;;4.03;;
37411;SDS011;23278;52.110;6.050;2023-12-22T10:10:08;15.70;;;2.15;;
37411;SDS011;23278;52.110;6.050;2023-12-22T10:12:35;17.52;;;3.00;;
37411;SDS011;23278;52.110;6.050;2023-12-22T10:15:03;11.70;;;2.97;;
37411;SDS011;23278;52.110;6.050;2023-12-22T10:17:31;10.77;;;2.30;;
37411;SDS011;23278;52.110;6.050;2023-12-22T10:19:58;10.65;;;2.58;;
37411;SDS011;23278;52.110;6.050;2023-12-22T10:22:24;10.45;;;2.58;;
37411;SDS011;23278;52.110;6.050;2023-12-22T10:24:50;12.75;;;2.92;;
37411;SDS011;23278;52.110;6.050;2023-12-22T10:27:16;9.65;;;2.03;;
37411;SDS011;23278;52.110;6.050;2023-12-22T10:29:54;10.10;;;1.45;;
37411;SDS011;23278;52.110;6.050;2023-12-22T10:32:21;6.40;;;1.90;;
37411;SDS011;23278;52.110;6.050;2023-12-22T10:34:48;9.55;;;1.83;;
37411;SDS011;23278;52.110;6.050;2023-12-22T10:37:18;4.90;;;1.20;;
37411;SDS011;23278;52.110;6.050;2023-12-22T10:39:45;3.05;;;0.90;;
37411;SDS011;23278;52.110;6.050;2023-12-22T10:42:14;8.75;;;1.80;;
37411;SDS011;23278;52.110;6.050;2023-12-22T10:44:40;6.55;;;1.25;;
37411;SDS011;23278;52.110;6.050;2023-12-22T10:47:07;8.38;;;1.63;;
37411;SDS011;23278;52.110;6.050;2023-12-22T10:49:33;7.45;;;1.05;;
37411;SDS011;23278;52.110;6.050;2023-12-22T10:51:59;6.90;;;2.28;;
37411;SDS011;23278;52.110;6.050;2023-12-22T10:54:25;9.73;;;2.10;;
37411;SDS011;23278;52.110;6.050;2023-12-22T10:56:52;9.95;;;2.05;;
37411;SDS011;23278;52.110;6.050;2023-12-22T10:59:24;6.78;;;1.35;;
37411;SDS011;23278;52.110;6.050;2023-12-22T11:01:54;7.63;;;1.48;;
37411;SDS011;23278;52.110;6.050;2023-12-22T11:04:23;5.95;;;1.17;;
37411;SDS011;23278;52.110;6.050;2023-12-22T11:06:54;10.07;;;1.83;;
37411;SDS011;23278;52.110;6.050;2023-12-22T11:09:23;8.30;;;1.33;;
37411;SDS011;23278;52.110;6.050;2023-12-22T11:11:51;7.03;;;1.85;;
37411;SDS011;23278;52.110;6.050;2023-12-22T11:14:18;6.22;;;1.40;;
37411;SDS011;23278;52.110;6.050;2023-12-22T11:16:45;12.13;;;2.10;;
37411;SDS011;23278;52.110;6.050;2023-12-22T11:19:14;7.28;;;1.63;;
37411;SDS011;23278;52.110;6.050;2023-12-22T11:21:40;6.43;;;1.60;;
37411;SDS011;23278;52.110;6.050;2023-12-22T11:24:08;9.65;;;1.83;;
37411;SDS011;23278;52.110;6.050;2023-12-22T11:26:34;7.47;;;1.35;;
37411;SDS011;23278;52.110;6.050;2023-12-22T11:29:01;8.52;;;1.27;;
37411;SDS011;23278;52.110;6.050;2023-12-22T11:31:28;9.27;;;1.30;;
37411;SDS011;23278;52.110;6.050;2023-12-22T11:33:57;6.75;;;1.02;;
37411;SDS011;23278;52.110;6.050;2023-12-22T11:36:27;13.95;;;1.52;;
37411;SDS011;23278;52.110;6.050;2023-12-22T11:38:55;9.95;;;1.27;;
37411;SDS011;23278;52.110;6.050;2023-12-22T11:41:22;10.85;;;2.15;;
37411;SDS011;23278;52.110;6.050;2023-12-22T11:43:52;9.35;;;1.38;;
37411;SDS011;23278;52.110;6.050;2023-12-22T11:46:20;14.02;;;1.15;;
37411;SDS011;23278;52.110;6.050;2023-12-22T11:48:49;8.27;;;1.27;;
37411;SDS011;23278;52.110;6.050;2023-12-22T11:51:17;8.65;;;1.20;;
37411;SDS011;23278;52.110;6.050;2023-12-22T11:53:43;13.18;;;1.42;;
37411;SDS011;23278;52.110;6.050;2023-12-22T11:56:10;12.63;;;2.05;;
37411;SDS011;23278;52.110;6.050;2023-12-22T11:58:38;9.73;;;3.72;;
37411;SDS011;23278;52.110;6.050;2023-12-22T12:01:24;8.68;;;1.30;;
37411;SDS011;23278;52.110;6.050;2023-12-22T12:03:54;13.75;;;1.67;;
37411;SDS011;23278;52.110;6.050;2023-12-22T12:06:30;4.22;;;1.05;;
37411;SDS011;23278;52.110;6.050;2023-12-22T12:09:01;9.77;;;1.40;;
37411;SDS011;23278;52.110;6.050;2023-12-22T12:14:16;10.68;;;1.05;;
37411;SDS011;23278;52.110;6.050;2023-12-22T12:16:48;6.82;;;1.42;;
37411;SDS011;23278;52.110;6.050;2023-12-22T12:19:14;7.30;;;1.40;;
37411;SDS011;23278;52.110;6.050;2023-12-22T12:21:40;6.40;;;1.27;;
37411;SDS011;23278;52.110;6.050;2023-12-22T12:24:06;11.98;;;1.05;;
37411;SDS011;23278;52.110;6.050;2023-12-22T12:26:34;10.55;;;2.88;;
37411;SDS011;23278;52.110;6.050;2023-12-22T12:29:01;8.48;;;1.17;;
37411;SDS011;23278;52.110;6.050;2023-12-22T12:31:37;3.65;;;0.93;;
37411;SDS011;23278;52.110;6.050;2023-12-22T12:34:06;7.93;;;1.55;;
37411;SDS011;23278;52.110;6.050;2023-12-22T12:36:33;6.93;;;1.08;;
37411;SDS011;23278;52.110;6.050;2023-12-22T12:39:08;10.40;;;2.05;;
37411;SDS011;23278;52.110;6.050;2023-12-22T12:41:40;7.43;;;0.90;;
37411;SDS011;23278;52.110;6.050;2023-12-22T12:44:08;7.47;;;1.42;;
37411;SDS011;23278;52.110;6.050;2023-12-22T12:46:36;4.82;;;1.27;;
37411;SDS011;23278;52.110;6.050;2023-12-22T12:49:06;7.57;;;1.40;;
37411;SDS011;23278;52.110;6.050;2023-12-22T12:51:39;7.03;;;1.23;;
37411;SDS011;23278;52.110;6.050;2023-12-22T12:54:07;6.68;;;1.45;;
37411;SDS011;23278;52.110;6.050;2023-12-22T12:56:40;7.00;;;1.10;;
37411;SDS011;23278;52.110;6.050;2023-12-22T12:59:14;8.05;;;1.65;;
37411;SDS011;23278;52.110;6.050;2023-12-22T13:01:42;6.72;;;1.35;;
37411;SDS011;23278;52.110;6.050;2023-12-22T13:04:09;10.20;;;2.10;;
37411;SDS011;23278;52.110;6.050;2023-12-22T13:06:42;8.70;;;1.00;;
37411;SDS011;23278;52.110;6.050;2023-12-22T13:09:12;8.57;;;1.42;;
37411;SDS011;23278;52.110;6.050;2023-12-22T13:11:41;6.82;;;2.53;;
37411;SDS011;23278;52.110;6.050;2023-12-22T13:14:12;8.73;;;1.33;;
37411;SDS011;23278;52.110;6.050;2023-12-22T13:16:47;5.85;;;1.15;;
37411;SDS011;23278;52.110;6.050;2023-12-22T13:19:13;9.52;;;0.98;;
37411;SDS011;23278;52.110;6.050;2023-12-22T13:21:39;5.95;;;1.15;;
37411;SDS011;23278;52.110;6.050;2023-12-22T13:26:38;7.13;;;1.10;;
37411;SDS011;23278;52.110;6.050;2023-12-22T13:29:05;6.97;;;1.35;;
37411;SDS011;23278;52.110;6.050;2023-12-22T13:31:32;8.73;;;0.98;;
37411;SDS011;23278;52.110;6.050;2023-12-22T13:34:01;15.27;;;2.70;;
37411;SDS011;23278;52.110;6.050;2023-12-22T13:36:28;5.95;;;1.48;;
37411;SDS011;23278;52.110;6.050;2023-12-22T13:38:59;11.63;;;2.47;;
37411;SDS011;23278;52.110;6.050;2023-12-22T13:41:25;11.07;;;1.63;;
37411;SDS011;23278;52.110;6.050;2023-12-22T13:43:51;6.60;;;0.80;;
37411;SDS011;23278;52.110;6.050;2023-12-22T13:46:17;10.00;;;2.38;;
37411;SDS011;23278;52.110;6.050;2023-12-22T13:48:43;7.13;;;1.35;;
37411;SDS011;23278;52.110;6.050;2023-12-22T13:51:10;14.00;;;3.53;;
37411;SDS011;23278;52.110;6.050;2023-12-22T13:53:54;4.75;;;1.13;;
37411;SDS011;23278;52.110;6.050;2023-12-22T13:56:21;4.93;;;1.10;;
37411;SDS011;23278;52.110;6.050;2023-12-22T13:58:47;6.13;;;0.93;;
37411;SDS011;23278;52.110;6.050;2023-12-22T14:01:13;10.77;;;2.20;;
37411;SDS011;23278;52.110;6.050;2023-12-22T14:03:43;15.65;;;3.15;;
37411;SDS011;23278;52.110;6.050;2023-12-22T14:06:12;5.82;;;1.10;;
37411;SDS011;23278;52.110;6.050;2023-12-22T14:08:41;5.15;;;1.02;;
37411;SDS011;23278;52.110;6.050;2023-12-22T14:11:07;7.32;;;1.10;;
37411;SDS011;23278;52.110;6.050;2023-12-22T14:13:33;4.55;;;1.00;;
37411;SDS011;23278;52.110;6.050;2023-12-22T14:16:05;10.45;;;1.30;;
37411;SDS011;23278;52.110;6.050;2023-12-22T14:18:32;4.63;;;1.17;;
37411;SDS011;23278;52.110;6.050;2023-12-22T14:20:58;8.50;;;1.20;;
37411;SDS011;23278;52.110;6.050;2023-12-22T14:23:26;5.75;;;1.13;;
37411;SDS011;23278;52.110;6.050;2023-12-22T14:25:52;8.35;;;1.88;;
37411;SDS011;23278;52.110;6.050;2023-12-22T14:28:18;7.55;;;2.25;;
37411;SDS011;23278;52.110;6.050;2023-12-22T14:30:44;6.78;;;1.17;;
37411;SDS011;23278;52.110;6.050;2023-12-22T14:33:10;10.27;;;1.83;;
37411;SDS011;23278;52.110;6.050;2023-12-22T14:35:36;4.75;;;1.08;;
37411;SDS011;23278;52.110;6.050;2023-12-22T14:38:02;9.82;;;1.98;;
37411;SDS011;23278;52.110;6.050;2023-12-22T14:40:29;10.13;;;2.45;;
37411;SDS011;23278;52.110;6.050;2023-12-22T14:42:55;6.90;;;1.27;;
37411;SDS011;23278;52.110;6.050;2023-12-22T14:45:21;11.30;;;0.80;;
37411;SDS011;23278;52.110;6.050;2023-12-22T14:47:48;8.05;;;1.60;;
37411;SDS011;23278;52.110;6.050;2023-12-22T14:50:14;6.05;;;1.55;;
37411;SDS011;23278;52.110;6.050;2023-12-22T14:52:40;8.75;;;1.20;;